createdAt,value
2017-10-14T00:00:05.412Z,99203.14
2017-10-14T00:02:32.928Z,99204.64
2017-10-14T00:05:00.447Z,99194.47
2017-10-14T00:07:27.962Z,99209.56
2017-10-14T00:09:55.470Z,99209.31
2017-10-14T00:12:22.983Z,99214.20
2017-10-14T00:14:50.487Z,99212.27
2017-10-14T00:17:18.082Z,99213.68
2017-10-14T00:19:45.643Z,99215.89
2017-10-14T00:22:13.155Z,99214.26
2017-10-14T00:24:40.683Z,99213.34
2017-10-14T00:27:08.185Z,99211.75
2017-10-14T00:29:35.692Z,99211.55
2017-10-14T00:32:03.216Z,99210.77
2017-10-14T00:34:30.717Z,99215.22
2017-10-14T00:36:58.211Z,99209.41
2017-10-14T00:39:25.725Z,99205.98
2017-10-14T00:41:53.241Z,99206.13
2017-10-14T00:44:20.747Z,99211.92
2017-10-14T00:46:48.254Z,99207.27
2017-10-14T00:49:15.766Z,99205.77
2017-10-14T00:51:43.276Z,99202.72
2017-10-14T00:54:10.786Z,99203.40
2017-10-14T00:56:38.297Z,99205.66
2017-10-14T00:59:05.792Z,99206.03
2017-10-14T01:01:33.312Z,99204.57
2017-10-14T01:04:00.847Z,99206.42
2017-10-14T01:06:28.376Z,99206.41
2017-10-14T01:08:55.886Z,99196.87
2017-10-14T01:11:23.402Z,99199.38
2017-10-14T01:13:50.926Z,99196.37
2017-10-14T01:16:18.462Z,99199.69
2017-10-14T01:18:45.976Z,99193.97
2017-10-14T01:21:13.476Z,99202.50
2017-10-14T01:23:40.976Z,99201.37
2017-10-14T01:26:08.488Z,99205.83
2017-10-14T01:28:36.013Z,99202.45
2017-10-14T01:31:03.530Z,99203.86
2017-10-14T01:33:31.032Z,99206.00
2017-10-14T01:35:58.545Z,99201.59
2017-10-14T01:38:26.053Z,99207.04
2017-10-14T01:40:53.551Z,99204.89
2017-10-14T01:43:21.074Z,99205.45
2017-10-14T01:45:48.596Z,99201.73
2017-10-14T01:48:16.101Z,99197.02
2017-10-14T01:50:43.598Z,99198.88
2017-10-14T01:53:11.117Z,99193.47
2017-10-14T01:55:38.613Z,99196.67
2017-10-14T01:58:06.128Z,99199.41
2017-10-14T02:00:33.632Z,99195.64
2017-10-14T02:03:01.157Z,99200.55
2017-10-14T02:05:28.666Z,99192.94
2017-10-14T02:07:56.179Z,99196.56
2017-10-14T02:10:23.682Z,99195.53
2017-10-14T02:12:51.211Z,99190.69
2017-10-14T02:15:18.740Z,99190.78
2017-10-14T02:17:46.260Z,99192.38
2017-10-14T02:20:13.769Z,99201.09
2017-10-14T02:22:41.275Z,99200.39
2017-10-14T02:25:08.790Z,99194.56
2017-10-14T02:27:36.286Z,99192.95
2017-10-14T02:30:03.790Z,99184.59
2017-10-14T02:32:31.294Z,99187.94
2017-10-14T02:34:58.804Z,99191.30
2017-10-14T02:37:26.427Z,99189.09
2017-10-14T02:39:53.940Z,99193.58
2017-10-14T02:42:21.445Z,99184.98
2017-10-14T02:44:48.941Z,99194.70
2017-10-14T02:47:16.447Z,99195.80
2017-10-14T02:49:43.948Z,99204.73
2017-10-14T02:52:11.471Z,99201.75
2017-10-14T02:54:38.977Z,99198.33
2017-10-14T02:57:06.481Z,99198.08
2017-10-14T02:59:33.983Z,99200.19
2017-10-14T03:02:01.555Z,99200.77
2017-10-14T03:04:29.110Z,99201.02
2017-10-14T03:06:56.616Z,99198.34
2017-10-14T03:09:24.137Z,99191.84
2017-10-14T03:11:51.663Z,99195.44
2017-10-14T03:14:19.179Z,99195.59
2017-10-14T03:16:46.712Z,99199.63
2017-10-14T03:19:14.226Z,99203.23
2017-10-14T03:21:41.732Z,99199.02
2017-10-14T03:24:09.240Z,99199.58
2017-10-14T03:26:36.741Z,99196.98
2017-10-14T03:29:04.246Z,99199.25
2017-10-14T03:31:31.759Z,99200.70
2017-10-14T03:33:59.267Z,99205.17
2017-10-14T03:36:26.775Z,99203.32
2017-10-14T03:38:54.284Z,99199.25
2017-10-14T03:41:21.800Z,99201.06
2017-10-14T03:43:49.296Z,99208.05
2017-10-14T03:46:16.808Z,99204.89
2017-10-14T03:48:44.315Z,99205.88
2017-10-14T03:51:11.845Z,99206.55
2017-10-14T03:53:39.350Z,99211.45
2017-10-14T03:56:06.855Z,99209.91
2017-10-14T03:58:34.364Z,99214.34
2017-10-14T04:01:01.874Z,99217.88
2017-10-14T04:03:29.377Z,99215.52
2017-10-14T04:05:56.880Z,99224.03
2017-10-14T04:08:24.395Z,99221.20
2017-10-14T04:10:51.905Z,99226.41
2017-10-14T04:13:19.416Z,99218.58
2017-10-14T04:15:46.921Z,99215.25
2017-10-14T04:18:14.431Z,99223.07
2017-10-14T04:20:41.931Z,99221.94
2017-10-14T04:23:09.447Z,99215.72
2017-10-14T04:25:36.947Z,99217.63
2017-10-14T04:28:04.467Z,99220.20
2017-10-14T04:30:33.970Z,99220.59
2017-10-14T04:33:01.750Z,99221.69
2017-10-14T04:35:29.256Z,99226.05
2017-10-14T04:37:56.764Z,99220.68
2017-10-14T04:40:24.283Z,99221.86
2017-10-14T04:42:51.796Z,99216.34
2017-10-14T04:45:19.304Z,99223.88
2017-10-14T04:47:46.823Z,99227.99
2017-10-14T04:50:14.327Z,99225.39
2017-10-14T04:52:41.834Z,99220.26
2017-10-14T04:55:09.342Z,99220.73
2017-10-14T04:57:36.840Z,99218.55
2017-10-14T05:00:04.349Z,99215.69
2017-10-14T05:02:31.874Z,99217.17
2017-10-14T05:04:59.374Z,99214.09
2017-10-14T05:07:26.885Z,99214.16
2017-10-14T05:09:54.392Z,99222.17
2017-10-14T05:12:21.887Z,99227.88
2017-10-14T05:14:49.390Z,99230.38
2017-10-14T05:17:16.898Z,99219.08
2017-10-14T05:19:44.403Z,99223.52
2017-10-14T05:22:11.922Z,99225.48
2017-10-14T05:24:39.430Z,99212.27
2017-10-14T05:27:06.952Z,99213.14
2017-10-14T05:29:34.472Z,99215.31
2017-10-14T05:32:01.974Z,99216.92
2017-10-14T05:34:29.479Z,99225.20
2017-10-14T05:36:56.987Z,99223.46
2017-10-14T05:39:24.510Z,99226.38
2017-10-14T05:41:52.012Z,99226.80
2017-10-14T05:44:19.513Z,99229.91
2017-10-14T05:46:47.022Z,99235.12
2017-10-14T05:49:14.519Z,99238.28
2017-10-14T05:51:42.036Z,99233.98
2017-10-14T05:54:09.549Z,99243.94
2017-10-14T05:56:37.056Z,99244.22
2017-10-14T05:59:04.574Z,99244.69
2017-10-14T06:01:32.091Z,99241.77
2017-10-14T06:03:59.605Z,99243.66
2017-10-14T06:06:27.125Z,99246.39
2017-10-14T06:08:54.642Z,99254.55
2017-10-14T06:11:22.184Z,99257.20
2017-10-14T06:13:49.692Z,99258.73
2017-10-14T06:16:17.311Z,99255.25
2017-10-14T06:18:44.823Z,99251.73
2017-10-14T06:21:12.325Z,99256.34
2017-10-14T06:23:39.831Z,99259.69
2017-10-14T06:26:07.332Z,99257.41
2017-10-14T06:28:34.874Z,99255.70
2017-10-14T06:31:02.385Z,99249.52
2017-10-14T06:33:29.893Z,99259.47
2017-10-14T06:35:57.475Z,99257.85
2017-10-14T06:38:24.975Z,99260.16
2017-10-14T06:40:52.488Z,99258.73
2017-10-14T06:43:20.264Z,99261.15
2017-10-14T06:45:47.780Z,99260.79
2017-10-14T06:48:15.280Z,99260.00
2017-10-14T06:50:42.797Z,99263.27
2017-10-14T06:53:10.311Z,99263.14
2017-10-14T06:55:37.842Z,99257.99
2017-10-14T06:58:05.359Z,99261.77
2017-10-14T07:00:32.842Z,99264.31
2017-10-14T07:03:00.344Z,99264.95
2017-10-14T07:05:27.964Z,99267.14
2017-10-14T07:07:55.520Z,99265.41
2017-10-14T07:10:23.039Z,99268.02
2017-10-14T07:12:50.567Z,99275.30
2017-10-14T07:15:18.072Z,99273.16
2017-10-14T07:17:45.587Z,99273.50
2017-10-14T07:20:13.106Z,99272.34
2017-10-14T07:22:40.740Z,99270.42
2017-10-14T07:25:08.262Z,99271.01
2017-10-14T07:27:35.763Z,99269.62
2017-10-14T07:30:03.286Z,99275.55
2017-10-14T07:32:31.955Z,99274.20
2017-10-14T07:34:59.459Z,99272.53
2017-10-14T07:37:26.959Z,99271.81
2017-10-14T07:39:54.537Z,99269.77
2017-10-14T07:42:22.038Z,99274.13
2017-10-14T07:44:49.564Z,99260.91
2017-10-14T07:47:17.076Z,99267.13
2017-10-14T07:49:44.588Z,99272.64
2017-10-14T07:52:12.091Z,99270.91
2017-10-14T07:54:39.600Z,99274.53
2017-10-14T07:57:07.107Z,99276.83
2017-10-14T07:59:34.619Z,99267.73
2017-10-14T08:02:02.130Z,99272.96
2017-10-14T08:04:29.653Z,99266.52
2017-10-14T08:06:57.164Z,99269.44
2017-10-14T08:09:24.680Z,99265.55
2017-10-14T08:11:52.227Z,99269.90
2017-10-14T08:14:19.755Z,99267.69
2017-10-14T08:16:47.270Z,99260.47
2017-10-14T08:19:14.789Z,99262.56
2017-10-14T08:21:42.318Z,99269.47
2017-10-14T08:24:09.839Z,99274.77
2017-10-14T08:26:37.342Z,99268.80
2017-10-14T08:29:04.874Z,99265.65
2017-10-14T08:31:32.382Z,99263.89
2017-10-14T08:33:59.932Z,99270.14
2017-10-14T08:36:27.447Z,99277.30
2017-10-14T08:38:54.952Z,99276.52
2017-10-14T08:41:22.464Z,99278.58
2017-10-14T08:43:49.976Z,99282.73
2017-10-14T08:46:17.511Z,99280.96
2017-10-14T08:48:45.028Z,99283.29
2017-10-14T08:51:12.549Z,99282.45
2017-10-14T08:53:40.072Z,99285.09
2017-10-14T08:56:07.602Z,99292.47
2017-10-14T08:58:35.112Z,99286.56
2017-10-14T09:01:02.622Z,99278.11
2017-10-14T09:03:30.140Z,99273.73
2017-10-14T09:05:57.636Z,99285.75
2017-10-14T09:08:25.158Z,99278.03
2017-10-14T09:10:52.729Z,99272.64
2017-10-14T09:13:20.254Z,99277.22
2017-10-14T09:15:47.765Z,99277.19
2017-10-14T09:18:15.312Z,99274.52
2017-10-14T09:20:42.831Z,99278.91
2017-10-14T09:23:10.331Z,99281.06
2017-10-14T09:25:37.887Z,99281.72
2017-10-14T09:28:05.419Z,99274.81
2017-10-14T09:30:32.943Z,99279.72
2017-10-14T09:33:00.455Z,99268.05
2017-10-14T09:35:29.864Z,99272.72
2017-10-14T09:37:58.445Z,99268.38
2017-10-14T09:40:25.984Z,99269.69
2017-10-14T09:42:53.511Z,99272.92
2017-10-14T09:45:21.031Z,99266.75
2017-10-14T09:47:48.570Z,99268.58
2017-10-14T09:50:16.102Z,99258.69
2017-10-14T09:52:43.615Z,99251.72
2017-10-14T09:55:11.148Z,99254.64
2017-10-14T09:57:38.939Z,99263.27
2017-10-14T10:00:06.480Z,99265.23
2017-10-14T10:02:34.016Z,99260.95
2017-10-14T10:05:01.545Z,99257.97
2017-10-14T10:07:29.073Z,99252.14
2017-10-14T10:09:56.628Z,99256.53
2017-10-14T10:12:24.142Z,99253.13
2017-10-14T10:14:51.775Z,99253.34
2017-10-14T10:17:19.284Z,99248.13
2017-10-14T10:19:46.795Z,99243.62
2017-10-14T10:22:14.316Z,99252.36
2017-10-14T10:24:41.840Z,99245.35
2017-10-14T10:27:09.377Z,99248.97
2017-10-14T10:29:36.907Z,99242.58
2017-10-14T10:32:04.409Z,99239.72
2017-10-14T10:34:31.923Z,99235.36
2017-10-14T10:36:59.422Z,99235.61
2017-10-14T10:39:27.003Z,99239.05
2017-10-14T10:41:54.496Z,99236.43
2017-10-14T10:44:22.049Z,99226.46
2017-10-14T10:46:49.560Z,99225.94
2017-10-14T10:49:17.063Z,99226.21
2017-10-14T10:51:44.576Z,99222.47
2017-10-14T10:54:12.092Z,99214.35
2017-10-14T10:56:39.629Z,99216.66
2017-10-14T10:59:07.159Z,99213.55
2017-10-14T11:01:34.680Z,99208.06
2017-10-14T11:04:02.227Z,99205.91
2017-10-14T11:06:29.723Z,99207.54
2017-10-14T11:08:57.243Z,99199.75
2017-10-14T11:11:24.748Z,99192.93
2017-10-14T11:13:52.251Z,99195.89
2017-10-14T11:16:19.888Z,99194.11
2017-10-14T11:18:47.405Z,99194.33
2017-10-14T11:21:14.930Z,99195.16
2017-10-14T11:23:42.439Z,99197.17
2017-10-14T11:26:09.964Z,99192.33
2017-10-14T11:28:37.473Z,99188.99
2017-10-14T11:31:05.011Z,99181.08
2017-10-14T11:33:32.626Z,99178.14
2017-10-14T11:36:00.157Z,99179.54
2017-10-14T11:38:27.699Z,99178.06
2017-10-14T11:40:55.220Z,99177.74
2017-10-14T11:43:22.736Z,99176.69
2017-10-14T11:45:50.250Z,99176.19
2017-10-14T11:48:17.779Z,99166.59
2017-10-14T11:50:45.309Z,99160.88
2017-10-14T11:53:12.833Z,99163.41
2017-10-14T11:55:40.343Z,99163.34
2017-10-14T11:58:07.843Z,99156.84
2017-10-14T12:00:35.387Z,99154.08
2017-10-14T12:03:02.907Z,99161.22
2017-10-14T12:05:30.419Z,99159.83
2017-10-14T12:07:57.963Z,99149.34
2017-10-14T12:10:25.494Z,99151.98
2017-10-14T12:12:53.011Z,99146.77
2017-10-14T12:15:20.519Z,99141.39
2017-10-14T12:17:48.049Z,99142.23
2017-10-14T12:20:15.592Z,99139.39
2017-10-14T12:22:43.107Z,99131.38
2017-10-14T12:25:10.688Z,99129.36
2017-10-14T12:27:38.190Z,99127.56
2017-10-14T12:30:05.700Z,99136.14
2017-10-14T12:32:33.204Z,99134.00
2017-10-14T12:35:00.725Z,99128.44
2017-10-14T12:37:28.242Z,99136.17
2017-10-14T12:39:55.750Z,99128.41
2017-10-14T12:42:23.264Z,99133.97
2017-10-14T12:44:50.846Z,99125.81
2017-10-14T12:47:18.364Z,99127.66
2017-10-14T12:49:45.894Z,99120.20
2017-10-14T12:52:13.424Z,99120.56
2017-10-14T12:54:40.957Z,99119.74
2017-10-14T12:57:08.511Z,99115.46
2017-10-14T12:59:36.015Z,99116.58
2017-10-14T13:02:03.587Z,99111.08
2017-10-14T13:04:31.106Z,99111.27
2017-10-14T13:06:58.620Z,99104.66
2017-10-14T13:09:26.112Z,99102.06
2017-10-14T13:11:53.635Z,99101.14
2017-10-14T13:14:21.160Z,99096.94
2017-10-14T13:16:48.694Z,99093.11
2017-10-14T13:19:16.284Z,99086.44
2017-10-14T13:21:43.807Z,99090.40
2017-10-14T13:24:11.327Z,99086.19
2017-10-14T13:26:38.831Z,99087.63
2017-10-14T13:29:06.328Z,99083.22
2017-10-14T13:31:33.833Z,99089.77
2017-10-14T13:34:01.348Z,99079.24
2017-10-14T13:36:28.862Z,99077.66
2017-10-14T13:38:56.434Z,99078.87
2017-10-14T13:41:23.930Z,99075.75
2017-10-14T13:43:51.459Z,99072.97
2017-10-14T13:46:18.968Z,99073.68
2017-10-14T13:48:46.488Z,99071.73
2017-10-14T13:51:14.024Z,99069.05
2017-10-14T13:53:41.547Z,99064.45
2017-10-14T13:56:09.055Z,99070.95
2017-10-14T13:58:36.567Z,99061.25
2017-10-14T14:01:04.108Z,99065.82
2017-10-14T14:03:31.635Z,99056.09
2017-10-14T14:05:59.151Z,99061.27
2017-10-14T14:08:26.648Z,99061.91
2017-10-14T14:10:54.150Z,99058.92
2017-10-14T14:13:21.703Z,99057.11
2017-10-14T14:15:49.256Z,99049.54
2017-10-14T14:18:16.776Z,99053.88
2017-10-14T14:20:44.288Z,99056.39
2017-10-14T14:23:11.816Z,99048.77
2017-10-14T14:25:39.354Z,99049.45
2017-10-14T14:28:06.880Z,99046.47
2017-10-14T14:30:34.477Z,99040.13
2017-10-14T14:33:02.005Z,99044.52
2017-10-14T14:35:29.516Z,99035.39
2017-10-14T14:37:57.051Z,99035.59
2017-10-14T14:40:24.559Z,99034.98
2017-10-14T14:42:52.094Z,99042.41
2017-10-14T14:45:19.623Z,99037.38
2017-10-14T14:47:47.135Z,99042.93
2017-10-14T14:50:14.649Z,99047.52
2017-10-14T14:52:42.154Z,99048.35
2017-10-14T14:55:09.656Z,99046.21
2017-10-14T14:57:37.146Z,99042.66
2017-10-14T15:00:04.669Z,99044.12
2017-10-14T15:02:32.195Z,99041.37
2017-10-14T15:04:59.733Z,99049.08
2017-10-14T15:07:27.291Z,99044.03
2017-10-14T15:09:54.816Z,99051.36
2017-10-14T15:12:22.339Z,99051.67
2017-10-14T15:14:49.860Z,99055.53
2017-10-14T15:17:17.387Z,99045.66
2017-10-14T15:19:44.900Z,99054.49
2017-10-14T15:22:12.433Z,99048.58
2017-10-14T15:24:39.943Z,99052.94
2017-10-14T15:27:07.473Z,99049.75
2017-10-14T15:29:34.985Z,99050.04
2017-10-14T15:32:02.501Z,99048.77
2017-10-14T15:34:30.174Z,99045.39
2017-10-14T15:36:57.683Z,99045.66
2017-10-14T15:39:25.212Z,99036.77
2017-10-14T15:41:54.352Z,99036.27
2017-10-14T15:44:23.003Z,99035.87
2017-10-14T15:46:50.540Z,99030.47
2017-10-14T15:49:18.060Z,99029.02
2017-10-14T15:51:45.574Z,99029.38
2017-10-14T15:54:13.091Z,99033.84
2017-10-14T15:56:40.608Z,99027.78
2017-10-14T15:59:08.126Z,99029.80
2017-10-14T16:01:35.793Z,99022.19
2017-10-14T16:04:03.324Z,99027.84
2017-10-14T16:06:30.846Z,99029.50
2017-10-14T16:08:58.378Z,99031.69
2017-10-14T16:11:25.917Z,99033.16
2017-10-14T16:13:53.419Z,99029.58
2017-10-14T16:16:20.931Z,99028.87
2017-10-14T16:18:48.450Z,99034.78
2017-10-14T16:21:15.965Z,99035.98
2017-10-14T16:23:43.490Z,99041.55
2017-10-14T16:26:10.989Z,99039.09
2017-10-14T16:28:38.513Z,99033.95
2017-10-14T16:31:06.037Z,99038.29
2017-10-14T16:33:33.584Z,99040.23
2017-10-14T16:36:01.084Z,99037.25
2017-10-14T16:38:28.627Z,99044.41
2017-10-14T16:40:56.135Z,99038.77
2017-10-14T16:43:23.664Z,99045.03
2017-10-14T16:45:51.174Z,99040.62
2017-10-14T16:48:18.694Z,99049.22
2017-10-14T16:50:46.225Z,99053.15
2017-10-14T16:53:13.775Z,99046.14
2017-10-14T16:55:41.322Z,99047.09
2017-10-14T16:58:08.864Z,99042.23
2017-10-14T17:00:36.396Z,99045.42
2017-10-14T17:03:03.931Z,99044.27
2017-10-14T17:05:31.433Z,99045.61
2017-10-14T17:07:58.937Z,99050.33
2017-10-14T17:10:26.442Z,99048.31
2017-10-14T17:12:53.980Z,99046.95
2017-10-14T17:15:21.506Z,99055.38
2017-10-14T17:17:49.034Z,99056.98
2017-10-14T17:20:16.558Z,99058.33
2017-10-14T17:22:44.094Z,99060.77
2017-10-14T17:25:11.620Z,99065.63
2017-10-14T17:27:39.141Z,99069.59
2017-10-14T17:30:06.674Z,99072.75
2017-10-14T17:32:34.203Z,99070.75
2017-10-14T17:35:01.720Z,99079.91
2017-10-14T17:37:29.229Z,99077.38
2017-10-14T17:39:56.737Z,99087.20
2017-10-14T17:42:24.285Z,99090.05
2017-10-14T17:44:51.792Z,99089.31
2017-10-14T17:47:19.303Z,99091.33
2017-10-14T17:49:46.826Z,99096.31
2017-10-14T17:52:14.336Z,99091.47
2017-10-14T17:54:42.058Z,99095.20
2017-10-14T17:57:09.597Z,99092.92
2017-10-14T17:59:37.121Z,99098.22
2017-10-14T18:02:04.648Z,99098.89
2017-10-14T18:04:32.180Z,99097.83
2017-10-14T18:06:59.691Z,99106.52
2017-10-14T18:09:27.229Z,99096.16
2017-10-14T18:11:54.772Z,99100.77
2017-10-14T18:14:22.319Z,99106.11
2017-10-14T18:16:49.846Z,99110.44
2017-10-14T18:19:17.399Z,99111.58
2017-10-14T18:21:44.912Z,99114.08
2017-10-14T18:24:12.434Z,99114.67
2017-10-14T18:26:40.059Z,99113.48
2017-10-14T18:29:07.675Z,99105.94
2017-10-14T18:31:35.211Z,99107.13
2017-10-14T18:34:02.716Z,99111.64
2017-10-14T18:36:30.232Z,99112.25
2017-10-14T18:38:57.751Z,99114.56
2017-10-14T18:41:25.322Z,99115.45
2017-10-14T18:43:52.870Z,99125.05
2017-10-14T18:46:20.398Z,99119.46
2017-10-14T18:48:47.916Z,99125.51
2017-10-14T18:51:15.427Z,99124.65
2017-10-14T18:53:42.966Z,99128.34
2017-10-14T18:56:10.512Z,99132.36
2017-10-14T18:58:38.048Z,99125.31
2017-10-14T19:01:05.562Z,99128.38
2017-10-14T19:03:33.085Z,99131.61
2017-10-14T19:06:00.628Z,99133.42
2017-10-14T19:08:28.141Z,99136.86
2017-10-14T19:10:55.663Z,99134.23
2017-10-14T19:13:23.164Z,99145.52
2017-10-14T19:15:50.688Z,99133.91
2017-10-14T19:18:18.252Z,99131.85
2017-10-14T19:20:45.837Z,99137.42
2017-10-14T19:23:13.335Z,99145.13
2017-10-14T19:25:40.852Z,99141.29
2017-10-14T19:28:08.368Z,99134.93
2017-10-14T19:30:35.909Z,99143.77
2017-10-14T19:33:03.415Z,99139.64
2017-10-14T19:35:30.923Z,99143.05
2017-10-14T19:37:58.443Z,99137.88
2017-10-14T19:40:26.010Z,99140.47
2017-10-14T19:42:53.546Z,99141.61
2017-10-14T19:45:21.092Z,99135.51
2017-10-14T19:47:48.631Z,99141.05
2017-10-14T19:50:16.160Z,99139.69
2017-10-14T19:52:43.735Z,99141.13
2017-10-14T19:55:11.266Z,99138.34
2017-10-14T19:57:38.835Z,99142.98
2017-10-14T20:00:06.369Z,99147.36
2017-10-14T20:02:33.901Z,99150.01
2017-10-14T20:05:01.451Z,99142.86
2017-10-14T20:07:28.978Z,99146.92
2017-10-14T20:09:56.497Z,99143.11
2017-10-14T20:12:24.097Z,99142.58
2017-10-14T20:14:51.653Z,99147.99
2017-10-14T20:17:19.163Z,99149.62
2017-10-14T20:19:46.726Z,99144.34
2017-10-14T20:22:14.226Z,99154.49
2017-10-14T20:24:41.739Z,99147.31
2017-10-14T20:27:09.284Z,99153.51
2017-10-14T20:29:36.807Z,99154.73
2017-10-14T20:32:04.380Z,99159.58
2017-10-14T20:34:31.941Z,99157.41
2017-10-14T20:36:59.459Z,99158.38
2017-10-14T20:39:26.974Z,99153.77
2017-10-14T20:41:54.624Z,99157.34
2017-10-14T20:44:22.233Z,99154.89
2017-10-14T20:46:49.745Z,99158.00
2017-10-14T20:49:17.278Z,99148.53
2017-10-14T20:51:44.803Z,99150.77
2017-10-14T20:54:12.320Z,99147.90
2017-10-14T20:56:39.834Z,99142.47
2017-10-14T20:59:07.357Z,99143.69
2017-10-14T21:01:34.896Z,99140.89
2017-10-14T21:04:02.491Z,99138.48
2017-10-14T21:06:30.007Z,99133.38
2017-10-14T21:08:57.562Z,99134.58
2017-10-14T21:11:25.086Z,99135.34
2017-10-14T21:13:52.587Z,99142.68
2017-10-14T21:16:20.113Z,99133.69
2017-10-14T21:18:47.767Z,99141.04
2017-10-14T21:21:15.292Z,99139.39
2017-10-14T21:23:42.796Z,99135.88
2017-10-14T21:26:10.324Z,99140.48
2017-10-14T21:28:37.840Z,99134.73
2017-10-14T21:31:05.363Z,99131.05
2017-10-14T21:33:32.880Z,99136.68
2017-10-14T21:36:00.423Z,99134.23
2017-10-14T21:38:27.954Z,99138.64
2017-10-14T21:40:55.448Z,99139.42
2017-10-14T21:43:22.940Z,99140.36
2017-10-14T21:45:50.546Z,99140.77
2017-10-14T21:48:18.051Z,99142.63
2017-10-14T21:50:45.569Z,99145.90
2017-10-14T21:53:13.064Z,99155.97
2017-10-14T21:55:40.603Z,99150.62
2017-10-14T21:58:08.101Z,99157.72
2017-10-14T22:00:35.688Z,99156.00
2017-10-14T22:03:03.209Z,99156.83
2017-10-14T22:05:30.722Z,99151.06
2017-10-14T22:07:58.241Z,99157.79
2017-10-14T22:10:25.760Z,99154.17
2017-10-14T22:12:53.265Z,99156.42
2017-10-14T22:15:20.780Z,99161.32
2017-10-14T22:17:48.291Z,99164.52
2017-10-14T22:20:15.795Z,99161.73
2017-10-14T22:22:43.332Z,99160.53
2017-10-14T22:25:10.856Z,99167.80
2017-10-14T22:27:38.385Z,99170.27
2017-10-14T22:30:05.890Z,99168.23
2017-10-14T22:32:33.441Z,99163.61
2017-10-14T22:35:00.951Z,99165.19
2017-10-14T22:37:28.471Z,99166.67
2017-10-14T22:39:55.978Z,99163.75
2017-10-14T22:42:23.505Z,99160.07
2017-10-14T22:44:51.005Z,99171.17
2017-10-14T22:47:18.522Z,99171.19
2017-10-14T22:49:46.024Z,99174.51
2017-10-14T22:52:13.531Z,99176.58
2017-10-14T22:54:41.044Z,99174.34
2017-10-14T22:57:08.575Z,99172.06
2017-10-14T22:59:36.092Z,99177.69
2017-10-14T23:02:03.641Z,99174.39
2017-10-14T23:04:31.151Z,99176.48
2017-10-14T23:06:58.666Z,99174.37
2017-10-14T23:09:26.168Z,99175.27
2017-10-14T23:11:53.672Z,99180.55
2017-10-14T23:14:21.208Z,99177.97
2017-10-14T23:16:48.719Z,99181.48
2017-10-14T23:19:16.231Z,99181.66
2017-10-14T23:21:43.897Z,99179.38
2017-10-14T23:24:11.431Z,99178.47
2017-10-14T23:26:38.957Z,99177.00
2017-10-14T23:29:06.480Z,99171.22
2017-10-14T23:31:34.003Z,99170.89
2017-10-14T23:34:01.510Z,99171.44
2017-10-14T23:36:29.034Z,99168.48
2017-10-14T23:38:56.550Z,99165.37
2017-10-14T23:41:24.060Z,99164.77
2017-10-14T23:43:51.573Z,99165.67
2017-10-14T23:46:19.098Z,99161.55
2017-10-14T23:48:46.607Z,99160.20
2017-10-14T23:51:14.099Z,99159.35
2017-10-14T23:53:41.597Z,99153.44
2017-10-14T23:56:09.110Z,99159.39
2017-10-14T23:58:36.631Z,99159.80
